Time;durP1;ratioP1;P1;durP2;ratioP2;P2;SDS_P1;SDS_P2;PMS_P1;PMS_P2;Temp;Humidity;BMP_temperature;BMP_pressure;BME280_temperature;BME280_humidity;BME280_pressure;Samples;Min_cycle;Max_cycle;Signal;HPM_P1;HPM_P2
2024/01/07 00:02:25;;;;;;;14.40;7.30;;;23.80;51.10;;;;;;4959823;28;92348;-63
2024/01/07 00:04:54;;;;;;;11.43;7.40;;;23.80;51.20;;;;;;4961223;28;91894;-62
2024/01/07 00:07:22;;;;;;;11.30;8.63;;;23.70;51.20;;;;;;4954249;28;94146;-62
2024/01/07 00:09:50;;;;;;;13.67;8.63;;;23.70;51.20;;;;;;4951594;28;93910;-62
2024/01/07 00:12:18;;;;;;;13.97;8.37;;;23.70;51.10;;;;;;4955060;28;93104;-62
2024/01/07 00:14:46;;;;;;;17.27;7.23;;;23.60;51.10;;;;;;4955440;28;92428;-62
2024/01/07 00:17:15;;;;;;;12.00;8.73;;;23.60;51.20;;;;;;4956262;28;94371;-62
2024/01/07 00:19:42;;;;;;;10.63;7.83;;;23.60;51.30;;;;;;4954670;28;94363;-62
2024/01/07 00:22:12;;;;;;;17.43;9.60;;;23.60;51.30;;;;;;4954432;28;92116;-62
2024/01/07 00:24:40;;;;;;;14.40;8.13;;;23.60;51.40;;;;;;4954652;28;92612;-63
2024/01/07 00:27:08;;;;;;;17.50;9.50;;;23.50;51.20;;;;;;4954599;28;94303;-62
2024/01/07 00:29:37;;;;;;;13.07;8.10;;;23.50;51.30;;;;;;4955159;28;93959;-62
2024/01/07 00:32:05;;;;;;;19.17;9.67;;;23.50;51.40;;;;;;4954340;28;92164;-62
2024/01/07 00:34:33;;;;;;;14.83;9.03;;;23.50;51.40;;;;;;4955395;28;92171;-62
2024/01/07 00:37:01;;;;;;;14.93;9.27;;;23.40;51.40;;;;;;4955420;28;95144;-62
2024/01/07 00:39:31;;;;;;;11.73;8.43;;;23.40;51.60;;;;;;4953304;28;94975;-62
2024/01/07 00:41:59;;;;;;;10.97;7.50;;;23.40;51.50;;;;;;4956158;28;92418;-62
2024/01/07 00:44:27;;;;;;;14.33;9.40;;;23.40;51.40;;;;;;4954621;28;92168;-62
2024/01/07 00:46:55;;;;;;;13.30;9.30;;;23.30;51.50;;;;;;4954527;28;94219;-62
2024/01/07 00:49:23;;;;;;;13.17;9.93;;;23.30;51.60;;;;;;4957244;28;93850;-62
2024/01/07 00:51:51;;;;;;;12.83;7.83;;;23.30;51.70;;;;;;4955323;28;92219;-62
2024/01/07 00:54:19;;;;;;;18.40;10.77;;;23.30;51.60;;;;;;4954461;28;91717;-62
2024/01/07 00:56:48;;;;;;;18.57;8.90;;;23.30;51.70;;;;;;4955874;28;94084;-62
2024/01/07 00:59:16;;;;;;;17.03;9.77;;;23.20;51.60;;;;;;4953282;28;93948;-62
2024/01/07 01:01:45;;;;;;;14.63;9.40;;;23.20;51.50;;;;;;4953932;28;93110;-63
2024/01/07 01:04:13;;;;;;;15.27;9.10;;;23.20;51.60;;;;;;4952059;28;92206;-63
2024/01/07 01:06:41;;;;;;;13.97;8.83;;;23.20;51.60;;;;;;4954090;28;94039;-63
2024/01/07 01:09:09;;;;;;;10.23;7.57;;;23.10;51.60;;;;;;4953508;28;92787;-63
2024/01/07 01:11:37;;;;;;;11.60;8.07;;;23.10;51.60;;;;;;4956038;28;92575;-62
2024/01/07 01:14:06;;;;;;;15.30;7.17;;;23.10;51.70;;;;;;4954259;28;94068;-62
2024/01/07 01:16:34;;;;;;;8.40;6.43;;;22.40;51.20;;;;;;4954318;28;94267;-62
2024/01/07 01:19:02;;;;;;;14.00;8.60;;;23.00;51.70;;;;;;4954595;28;93886;-62
2024/01/07 01:21:30;;;;;;;10.67;7.53;;;22.90;51.60;;;;;;4955533;28;92108;-63
2024/01/07 01:24:00;;;;;;;10.27;6.87;;;23.00;51.70;;;;;;4954021;28;92042;-62
2024/01/07 01:26:28;;;;;;;12.10;7.60;;;23.00;51.80;;;;;;4953036;28;95401;-62
2024/01/07 01:28:56;;;;;;;9.93;6.13;;;22.90;51.80;;;;;;4956415;28;94942;-62
2024/01/07 01:31:25;;;;;;;8.77;6.23;;;22.90;51.90;;;;;;4958304;28;93045;-63
2024/01/07 01:33:53;;;;;;;10.43;6.57;;;23.00;52.10;;;;;;4956978;28;92106;-63
2024/01/07 01:36:21;;;;;;;12.90;6.43;;;22.90;52.00;;;;;;4957483;28;94332;-63
2024/01/07 01:38:49;;;;;;;9.50;6.03;;;22.90;52.20;;;;;;4966671;28;93895;-63
2024/01/07 01:41:17;;;;;;;7.40;6.00;;;22.80;52.30;;;;;;4963438;28;92171;-62
2024/01/07 01:43:45;;;;;;;9.77;6.57;;;22.80;52.40;;;;;;4964386;28;92412;-62
2024/01/07 01:46:13;;;;;;;13.90;6.90;;;22.80;52.50;;;;;;4956750;28;94212;-63
2024/01/07 01:48:43;;;;;;;10.90;6.87;;;22.80;52.60;;;;;;4957382;28;94082;-62
2024/01/07 01:51:11;;;;;;;10.43;7.70;;;22.80;52.60;;;;;;4956408;28;93083;-62
2024/01/07 01:53:39;;;;;;;13.50;7.93;;;22.80;52.70;;;;;;4956773;28;92387;-62
2024/01/07 01:56:07;;;;;;;11.43;7.63;;;22.80;52.90;;;;;;4955938;28;94077;-62
2024/01/07 01:58:35;;;;;;;12.87;6.97;;;22.80;53.00;;;;;;4957371;28;93931;-63
2024/01/07 02:01:04;;;;;;;11.73;7.17;;;22.70;52.90;;;;;;4957513;28;92217;-62
2024/01/07 02:03:32;;;;;;;8.77;7.00;;;22.70;52.90;;;;;;4957541;28;92173;-62
2024/01/07 02:06:01;;;;;;;12.10;8.57;;;22.70;53.20;;;;;;4958367;28;93140;-62
2024/01/07 02:08:29;;;;;;;14.63;8.37;;;22.60;53.10;;;;;;4958259;28;93754;-62
2024/01/07 02:10:57;;;;;;;9.77;6.83;;;22.70;53.50;;;;;;4957552;28;92170;-62
2024/01/07 02:13:25;;;;;;;13.03;6.33;;;22.70;53.70;;;;;;4956764;28;92126;-62
2024/01/07 02:15:53;;;;;;;9.60;6.97;;;22.70;54.10;;;;;;4952916;28;95112;-62
2024/01/07 02:18:21;;;;;;;9.13;6.37;;;22.60;54.40;;;;;;4956462;28;94909;-62
2024/01/07 02:20:50;;;;;;;10.20;5.70;;;22.60;54.90;;;;;;4956184;28;92095;-62
2024/01/07 02:23:19;;;;;;;11.00;7.77;;;22.60;55.10;;;;;;4957443;28;92034;-62
2024/01/07 02:25:48;;;;;;;12.33;6.23;;;22.60;55.30;;;;;;4958504;28;94172;-62
2024/01/07 02:28:16;;;;;;;10.00;6.57;;;22.50;55.40;;;;;;4954076;28;93847;-62
2024/01/07 02:30:44;;;;;;;9.17;6.43;;;22.50;55.50;;;;;;4957592;28;92135;-62
2024/01/07 02:33:13;;;;;;;11.53;6.63;;;22.00;55.20;;;;;;4956106;28;91515;-62
2024/01/07 02:35:41;;;;;;;7.60;5.57;;;22.50;55.80;;;;;;4962001;28;94468;-62
2024/01/07 02:38:09;;;;;;;7.93;5.00;;;22.60;55.90;;;;;;4955679;28;93867;-62
2024/01/07 02:40:37;;;;;;;8.87;6.13;;;22.40;56.00;;;;;;4955249;28;93088;-62
2024/01/07 02:43:06;;;;;;;8.07;5.77;;;22.40;56.40;;;;;;4956133;28;92530;-62
2024/01/07 02:45:34;;;;;;;6.97;4.93;;;22.40;57.00;;;;;;4953414;28;94311;-62
2024/01/07 02:48:02;;;;;;;7.73;5.17;;;22.40;57.50;;;;;;4957214;28;93850;-62
2024/01/07 02:50:30;;;;;;;9.30;6.00;;;22.40;58.20;;;;;;4959480;28;92041;-62
2024/01/07 02:52:58;;;;;;;7.37;5.30;;;22.30;59.80;;;;;;4959723;28;92108;-62
2024/01/07 02:55:26;;;;;;;9.23;5.27;;;22.30;63.60;;;;;;4961710;28;94217;-62
2024/01/07 02:57:54;;;;;;;8.40;5.17;;;;;;;;;;4959324;28;93720;-62
2024/01/07 03:00:24;;;;;;;8.43;4.57;;;22.30;55.40;;;;;;4960143;28;92095;-62
2024/01/07 03:02:52;;;;;;;10.87;5.47;;;22.30;56.20;;;;;;4958683;28;92341;-62
2024/01/07 03:05:21;;;;;;;8.53;4.57;;;22.30;56.70;;;;;;4962238;28;94195;-62
2024/01/07 03:07:49;;;;;;;8.67;5.13;;;22.30;60.40;;;;;;4960121;28;94970;-62
2024/01/07 03:10:17;;;;;;;7.30;3.93;;;22.30;61.10;;;;;;4957324;28;92158;-62
2024/01/07 03:12:45;;;;;;;5.07;3.40;;;22.20;60.50;;;;;;4958433;28;92198;-62
2024/01/07 03:15:13;;;;;;;4.57;3.17;;;22.20;60.90;;;;;;4960454;28;92986;-62
2024/01/07 03:17:43;;;;;;;5.27;3.20;;;22.20;60.90;;;;;;4958710;28;93974;-62
2024/01/07 03:20:12;;;;;;;3.80;3.13;;;22.20;61.50;;;;;;4958888;28;92029;-62
2024/01/07 03:22:40;;;;;;;6.23;4.03;;;22.20;61.70;;;;;;4958915;28;91230;-62
2024/01/07 03:25:09;;;;;;;7.10;3.97;;;22.20;61.70;;;;;;4958742;28;94346;-62
2024/01/07 03:27:37;;;;;;;3.40;3.10;;;22.10;61.90;;;;;;4958530;28;95553;-62
2024/01/07 03:30:06;;;;;;;6.13;3.90;;;22.10;61.70;;;;;;4956485;28;93032;-62
2024/01/07 03:32:34;;;;;;;5.33;3.70;;;22.10;62.30;;;;;;4957805;28;92097;-62
2024/01/07 03:35:04;;;;;;;7.23;3.63;;;22.10;62.20;;;;;;4959252;28;94178;-62
2024/01/07 03:37:32;;;;;;;4.77;2.90;;;22.00;62.30;;;;;;4958875;28;92636;-62
2024/01/07 03:40:00;;;;;;;3.53;2.83;;;22.10;62.30;;;;;;4958613;28;91986;-62
2024/01/07 03:42:28;;;;;;;3.23;2.93;;;22.10;62.70;;;;;;4976282;28;92047;-62
2024/01/07 03:44:56;;;;;;;3.50;2.53;;;22.00;62.60;;;;;;4978714;28;94274;-62
2024/01/07 03:47:24;;;;;;;4.90;3.07;;;22.00;62.90;;;;;;4961482;28;93894;-62
2024/01/07 03:49:52;;;;;;;6.00;3.40;;;22.00;62.80;;;;;;4959537;28;91797;-62
2024/01/07 03:52:22;;;;;;;4.10;2.80;;;22.00;63.60;;;;;;4974034;28;93649;-62
2024/01/07 03:54:50;;;;;;;4.57;3.30;;;22.00;64.40;;;;;;4966269;28;95540;-62
2024/01/07 03:57:18;;;;;;;5.50;2.80;;;21.90;65.10;;;;;;4958916;28;94940;-62
2024/01/07 03:59:46;;;;;;;2.43;2.23;;;21.90;65.60;;;;;;4958814;28;92102;-62
2024/01/07 04:02:16;;;;;;;3.27;2.57;;;21.90;66.70;;;;;;4957574;28;92273;-62
2024/01/07 04:04:44;;;;;;;2.83;2.20;;;21.90;67.70;;;;;;4958823;28;95388;-62
2024/01/07 04:07:12;;;;;;;3.07;2.40;;;21.90;69.70;;;;;;4971968;28;93831;-62
2024/01/07 04:09:43;;;;;;;2.83;2.33;;;21.70;70.40;;;;;;4970331;28;91883;-62
2024/01/07 04:12:11;;;;;;;2.90;2.60;;;21.80;72.00;;;;;;4969808;28;91317;-62
2024/01/07 04:14:39;;;;;;;3.60;2.53;;;21.80;72.60;;;;;;4977759;28;94081;-62
2024/01/07 04:17:08;;;;;;;2.87;2.23;;;;;;;;;;4967756;28;93895;-62
2024/01/07 04:19:38;;;;;;;4.50;2.33;;;21.80;60.70;;;;;;4958172;28;92781;-62
2024/01/07 04:22:06;;;;;;;3.23;2.60;;;21.70;67.50;;;;;;4958170;28;92078;-62
2024/01/07 04:24:34;;;;;;;2.80;2.30;;;21.70;68.80;;;;;;4970337;28;93131;-62
2024/01/07 04:27:03;;;;;;;2.23;2.03;;;21.80;69.40;;;;;;4971393;28;95344;-62
2024/01/07 04:29:31;;;;;;;2.37;1.53;;;21.70;69.80;;;;;;4959265;28;91997;-62
2024/01/07 04:31:59;;;;;;;2.07;1.50;;;21.70;70.10;;;;;;4963962;28;92178;-62
2024/01/07 04:34:27;;;;;;;2.37;2.17;;;21.70;70.60;;;;;;4978061;28;94244;-62
2024/01/07 04:36:56;;;;;;;2.43;2.10;;;21.70;70.50;;;;;;4973121;28;93816;-62
2024/01/07 04:39:24;;;;;;;2.10;1.40;;;21.70;71.20;;;;;;4958808;28;92041;-62
2024/01/07 04:41:52;;;;;;;2.83;1.70;;;21.70;71.20;;;;;;4961380;28;92939;-62
2024/01/07 04:44:21;;;;;;;3.40;2.20;;;21.70;71.40;;;;;;4976829;28;95247;-62
2024/01/07 04:46:49;;;;;;;3.70;2.17;;;21.60;71.50;;;;;;4973855;28;93719;-62
2024/01/07 04:49:17;;;;;;;2.23;1.90;;;21.60;71.50;;;;;;4958781;28;91976;-62
2024/01/07 04:51:45;;;;;;;2.37;1.73;;;21.60;71.60;;;;;;4957496;28;92127;-62
2024/01/07 04:54:13;;;;;;;2.47;1.90;;;21.60;71.80;;;;;;4962780;28;94349;-62
2024/01/07 04:56:41;;;;;;;3.43;1.60;;;21.60;71.60;;;;;;4976320;28;93807;-62
2024/01/07 04:59:09;;;;;;;2.67;1.90;;;21.60;71.50;;;;;;4958589;28;91977;-62
2024/01/07 05:01:39;;;;;;;2.07;1.80;;;21.60;71.50;;;;;;4957878;28;91252;-62
2024/01/07 05:04:07;;;;;;;1.20;1.00;;;21.50;71.70;;;;;;4960435;28;94198;-62
2024/01/07 05:06:35;;;;;;;2.23;1.63;;;21.50;71.30;;;;;;4963969;28;93805;-62
2024/01/07 05:09:04;;;;;;;2.40;2.00;;;21.50;70.30;;;;;;4980415;28;93615;-62
2024/01/07 05:11:32;;;;;;;1.60;1.20;;;21.50;69.90;;;;;;4964061;28;92073;-62
2024/01/07 05:14:00;;;;;;;1.80;1.50;;;21.50;70.10;;;;;;4981370;28;94163;-62
2024/01/07 05:16:28;;;;;;;2.73;1.60;;;21.50;70.60;;;;;;4984098;28;93729;-62
2024/01/07 05:18:57;;;;;;;1.87;1.60;;;21.40;70.70;;;;;;4967761;28;92004;-62
2024/01/07 05:21:26;;;;;;;1.50;1.30;;;21.40;71.80;;;;;;4965252;28;92107;-62
2024/01/07 05:23:54;;;;;;;1.47;1.37;;;21.40;71.50;;;;;;4975392;28;95221;-62
2024/01/07 05:26:22;;;;;;;1.43;1.00;;;21.40;71.80;;;;;;4982134;28;93769;-62
2024/01/07 05:28:50;;;;;;;1.83;1.40;;;21.40;71.70;;;;;;4980718;28;92074;-62
2024/01/07 05:31:18;;;;;;;2.77;1.47;;;21.40;72.40;;;;;;4984468;28;91941;-62
2024/01/07 05:33:47;;;;;;;1.67;0.93;;;21.40;72.40;;;;;;4982020;28;95228;-62
2024/01/07 05:36:16;;;;;;;1.57;1.13;;;21.40;72.70;;;;;;4982548;28;96640;-62
2024/01/07 05:38:44;;;;;;;3.03;1.07;;;21.30;72.70;;;;;;4978967;28;92049;-62
2024/01/07 05:41:12;;;;;;;1.60;1.50;;;21.30;72.90;;;;;;4967373;28;92065;-62
2024/01/07 05:43:40;;;;;;;2.13;1.10;;;21.30;73.00;;;;;;4962900;28;93024;-61
2024/01/07 05:46:08;;;;;;;1.13;1.03;;;21.30;73.00;;;;;;4963262;28;93938;-62
2024/01/07 05:48:43;;;;;;;2.30;1.20;;;21.30;73.10;;;;;;4965974;28;93308;-62
2024/01/07 05:51:11;;;;;;;1.33;1.23;;;21.30;73.30;;;;;;4961770;28;91721;-62
2024/01/07 05:53:40;;;;;;;0.97;0.97;;;21.30;73.00;;;;;;4963439;28;94248;-62
2024/01/07 05:56:08;;;;;;;1.13;1.03;;;21.20;72.80;;;;;;4961852;28;93735;-62
2024/01/07 05:58:36;;;;;;;1.20;1.10;;;21.20;73.20;;;;;;4963354;28;92987;-62
2024/01/07 06:01:05;;;;;;;1.80;1.13;;;21.20;73.10;;;;;;4963604;28;92162;-62
2024/01/07 06:03:33;;;;;;;1.27;1.17;;;21.20;73.10;;;;;;4963435;28;94275;-61
2024/01/07 06:06:01;;;;;;;1.10;0.87;;;21.30;73.50;;;;;;4963392;28;93770;-62
2024/01/07 06:08:29;;;;;;;1.37;0.90;;;21.20;73.40;;;;;;4964344;28;93770;-62
2024/01/07 06:10:59;;;;;;;2.00;1.30;;;21.20;73.70;;;;;;4963335;28;91964;-62
2024/01/07 06:13:27;;;;;;;1.60;1.47;;;21.20;74.00;;;;;;4960190;28;96053;-62
2024/01/07 06:15:55;;;;;;;1.07;1.07;;;21.20;74.10;;;;;;4960651;28;93898;-62
2024/01/07 06:18:23;;;;;;;1.77;1.10;;;21.20;74.40;;;;;;4960711;28;92005;-62
2024/01/07 06:20:51;;;;;;;0.80;0.80;;;21.20;74.10;;;;;;4959428;28;92171;-62
2024/01/07 06:23:19;;;;;;;0.80;0.73;;;21.10;74.20;;;;;;4967024;28;95064;-62
2024/01/07 06:25:47;;;;;;;0.97;0.80;;;21.10;74.60;;;;;;4970119;28;94766;-63
2024/01/07 06:28:16;;;;;;;1.57;0.90;;;21.00;74.50;;;;;;4966834;28;92982;-62
2024/01/07 06:30:44;;;;;;;2.10;1.13;;;21.10;74.30;;;;;;4967628;28;93295;-62
2024/01/07 06:33:13;;;;;;;1.00;1.00;;;21.00;75.20;;;;;;4958985;28;94314;-62
2024/01/07 06:35:41;;;;;;;1.50;1.10;;;21.10;74.60;;;;;;4958717;28;92772;-62
2024/01/07 06:38:09;;;;;;;1.60;1.17;;;21.00;74.80;;;;;;4960585;28;92012;-62
2024/01/07 06:40:37;;;;;;;0.77;0.77;;;21.00;74.90;;;;;;4960247;28;91379;-62
2024/01/07 06:43:05;;;;;;;3.57;1.30;;;21.10;75.80;;;;;;4959029;28;94349;-62
2024/01/07 06:45:35;;;;;;;0.80;0.80;;;21.00;76.10;;;;;;4959835;28;93956;-62
2024/01/07 06:48:03;;;;;;;3.00;1.40;;;21.00;75.20;;;;;;4959207;28;93526;-62
2024/01/07 06:50:31;;;;;;;1.50;1.40;;;21.00;75.00;;;;;;4956710;28;93603;-62
2024/01/07 06:52:59;;;;;;;1.63;1.50;;;21.00;75.60;;;;;;4959042;28;94105;-62
2024/01/07 06:55:27;;;;;;;3.37;1.57;;;21.00;75.60;;;;;;4965802;28;93776;-62
2024/01/07 06:57:55;;;;;;;2.47;1.97;;;20.90;75.80;;;;;;4967541;28;92065;-62
2024/01/07 07:00:23;;;;;;;1.87;1.73;;;20.90;75.60;;;;;;4971462;28;92114;-62
2024/01/07 07:02:53;;;;;;;1.93;1.63;;;20.90;75.60;;;;;;4970004;28;93824;-62
2024/01/07 07:05:21;;;;;;;3.33;1.67;;;20.90;76.50;;;;;;4970190;28;93856;-62
2024/01/07 07:07:49;;;;;;;2.27;2.00;;;20.90;75.60;;;;;;4970353;28;92276;-61
2024/01/07 07:10:20;;;;;;;2.30;2.00;;;20.90;76.00;;;;;;4968629;28;92117;-62
2024/01/07 07:12:50;;;;;;;3.20;2.10;;;20.90;76.20;;;;;;4969239;28;94052;-61
2024/01/07 07:15:18;;;;;;;4.37;2.03;;;20.90;75.80;;;;;;4968976;28;96245;-61
2024/01/07 07:17:46;;;;;;;7.73;2.97;;;20.90;75.40;;;;;;4968755;28;92034;-60
2024/01/07 07:20:16;;;;;;;3.33;2.90;;;20.90;74.90;;;;;;4965615;28;92000;-60
2024/01/07 07:22:44;;;;;;;4.33;2.40;;;20.90;74.60;;;;;;4968310;28;94267;-60
2024/01/07 07:25:12;;;;;;;2.77;2.03;;;20.90;74.70;;;;;;4966803;28;94996;-61
2024/01/07 07:27:40;;;;;;;7.47;2.67;;;21.00;74.90;;;;;;4967950;28;91973;-61
2024/01/07 07:30:09;;;;;;;2.23;2.03;;;21.00;74.80;;;;;;4968375;28;91804;-61
2024/01/07 07:32:39;;;;;;;3.23;2.50;;;21.00;74.70;;;;;;4969683;28;94313;-61
2024/01/07 07:35:08;;;;;;;5.60;3.53;;;21.00;74.70;;;;;;4967101;28;93875;-60
2024/01/07 07:37:38;;;;;;;3.23;2.10;;;21.00;74.60;;;;;;4953872;28;93618;-61
2024/01/07 07:40:07;;;;;;;3.30;2.63;;;20.90;74.50;;;;;;4956170;28;92120;-60
2024/01/07 07:42:35;;;;;;;5.13;2.60;;;21.00;74.60;;;;;;4951465;28;94176;-60
2024/01/07 07:45:03;;;;;;;9.73;2.83;;;21.00;74.70;;;;;;4958569;28;93929;-60
2024/01/07 07:47:31;;;;;;;3.90;2.77;;;21.00;75.00;;;;;;4958659;28;92059;-60
2024/01/07 07:49:59;;;;;;;5.27;2.60;;;21.00;74.70;;;;;;4957573;28;92099;-60
2024/01/07 07:52:27;;;;;;;4.20;2.50;;;20.90;74.70;;;;;;4958117;28;93062;-60
2024/01/07 07:54:58;;;;;;;3.43;2.43;;;20.90;73.30;;;;;;4956563;28;94050;-61
2024/01/07 07:57:26;;;;;;;3.17;2.53;;;20.90;75.20;;;;;;4958537;28;92072;-60
2024/01/07 07:59:54;;;;;;;4.20;2.27;;;20.90;75.10;;;;;;4957242;28;92010;-60
2024/01/07 08:02:22;;;;;;;3.13;2.47;;;20.90;75.00;;;;;;4957112;28;95121;-60
2024/01/07 08:04:50;;;;;;;3.27;2.60;;;20.90;74.80;;;;;;4957641;28;94758;-60
2024/01/07 08:07:18;;;;;;;3.07;2.10;;;20.80;74.70;;;;;;4958140;28;92092;-61
2024/01/07 08:09:47;;;;;;;4.97;2.83;;;20.80;74.50;;;;;;4946747;28;93714;-60
2024/01/07 08:12:16;;;;;;;4.50;2.50;;;20.80;72.60;;;;;;4951490;28;94226;-61
2024/01/07 08:14:44;;;;;;;4.50;2.70;;;20.80;75.10;;;;;;4943543;28;93925;-61
2024/01/07 08:17:12;;;;;;;6.43;2.83;;;20.80;74.90;;;;;;4955857;28;92216;-60
2024/01/07 08:19:40;;;;;;;4.47;2.80;;;20.80;74.90;;;;;;4955782;28;91345;-60
2024/01/07 08:22:09;;;;;;;8.50;2.73;;;20.80;74.80;;;;;;4954299;28;94190;-61
2024/01/07 08:24:37;;;;;;;3.83;2.83;;;20.70;74.60;;;;;;4954964;28;92579;-60
2024/01/07 08:27:06;;;;;;;3.47;3.00;;;20.70;74.60;;;;;;4954138;28;93178;-60
2024/01/07 08:29:35;;;;;;;4.30;2.70;;;20.70;74.40;;;;;;4950351;28;92110;-60
2024/01/07 08:32:03;;;;;;;3.90;2.63;;;20.70;74.60;;;;;;4954929;28;94549;-60
2024/01/07 08:34:32;;;;;;;4.23;2.80;;;20.70;74.40;;;;;;4954062;28;94314;-60
2024/01/07 08:37:00;;;;;;;13.03;2.23;;;20.70;74.50;;;;;;4960386;28;92069;-61
2024/01/07 08:39:29;;;;;;;4.40;2.33;;;20.70;72.60;;;;;;4962428;28;92213;-60
2024/01/07 08:41:57;;;;;;;3.90;2.20;;;20.70;75.00;;;;;;4965001;28;94499;-60
2024/01/07 08:44:25;;;;;;;2.23;1.80;;;20.60;74.50;;;;;;4965277;28;93801;-61
2024/01/07 08:46:54;;;;;;;5.50;2.57;;;20.60;74.60;;;;;;4966415;28;92120;-61
2024/01/07 08:49:23;;;;;;;2.57;2.27;;;20.60;74.60;;;;;;4965236;28;92296;-61
2024/01/07 08:51:51;;;;;;;3.23;2.40;;;20.60;74.40;;;;;;4963140;28;95451;-60
2024/01/07 08:54:19;;;;;;;2.60;2.40;;;20.60;74.60;;;;;;4963773;28;94910;-60
2024/01/07 08:56:47;;;;;;;2.67;1.63;;;20.60;74.70;;;;;;4965169;28;92170;-60
2024/01/07 08:59:15;;;;;;;3.10;2.23;;;20.60;74.60;;;;;;4963596;28;92137;-60
2024/01/07 09:01:43;;;;;;;1.60;1.50;;;20.60;74.60;;;;;;4962940;28;94110;-60
2024/01/07 09:04:13;;;;;;;4.07;2.33;;;20.60;74.60;;;;;;4965462;28;94255;-60
2024/01/07 09:06:41;;;;;;;2.80;2.27;;;20.60;72.30;;;;;;4964526;28;92172;-61
2024/01/07 09:09:09;;;;;;;3.80;2.07;;;20.50;74.60;;;;;;4963924;28;91491;-60
2024/01/07 09:11:37;;;;;;;2.63;1.93;;;20.50;73.10;;;;;;4962652;28;94588;-60
2024/01/07 09:14:05;;;;;;;2.13;2.03;;;20.50;75.00;;;;;;4961625;28;93882;-60
2024/01/07 09:16:33;;;;;;;2.87;1.93;;;20.50;74.90;;;;;;4956512;28;93266;-60
2024/01/07 09:19:01;;;;;;;2.80;2.07;;;20.50;74.00;;;;;;4952243;28;92120;-60
2024/01/07 09:21:31;;;;;;;2.20;1.83;;;20.50;75.30;;;;;;4953487;28;94226;-60
2024/01/07 09:23:59;;;;;;;2.33;1.97;;;20.50;75.40;;;;;;4953710;28;93911;-60
2024/01/07 09:26:28;;;;;;;2.97;1.73;;;20.40;73.90;;;;;;4954615;28;92187;-60
2024/01/07 09:28:56;;;;;;;3.20;2.20;;;20.40;75.20;;;;;;4956513;28;92085;-60
2024/01/07 09:31:24;;;;;;;2.77;2.13;;;20.40;75.20;;;;;;4954274;28;94056;-61
2024/01/07 09:33:52;;;;;;;9.23;2.40;;;20.40;75.10;;;;;;4960891;28;94217;-61
2024/01/07 09:36:21;;;;;;;3.37;1.90;;;20.40;74.90;;;;;;4954205;28;92484;-60
2024/01/07 09:38:59;;;;;;;3.03;2.50;;;20.40;75.20;;;;;;4953609;28;92168;-60
2024/01/07 09:41:27;;;;;;;4.27;2.73;;;20.40;75.20;;;;;;4952997;28;94025;-60
2024/01/07 09:43:57;;;;;;;2.90;2.33;;;20.30;75.10;;;;;;4954199;28;94817;-60
2024/01/07 09:46:25;;;;;;;4.03;2.40;;;20.30;75.20;;;;;;4953667;28;92118;-60
2024/01/07 09:48:53;;;;;;;4.17;1.77;;;20.30;75.10;;;;;;4953710;28;92179;-60
2024/01/07 09:51:23;;;;;;;2.60;2.40;;;20.30;75.50;;;;;;4956695;28;94083;-60
2024/01/07 09:53:53;;;;;;;2.10;1.87;;;20.30;75.40;;;;;;4956760;28;93691;-60
2024/01/07 09:56:26;;;;;;;4.40;2.93;;;20.30;75.30;;;;;;4955367;28;92077;-60
2024/01/07 09:58:54;;;;;;;5.10;2.63;;;20.30;75.40;;;;;;4957096;28;92921;-60
2024/01/07 10:01:22;;;;;;;3.57;2.13;;;20.20;74.50;;;;;;4956857;28;94150;-60
2024/01/07 10:03:50;;;;;;;3.07;2.20;;;20.20;75.60;;;;;;4956844;28;92573;-60
2024/01/07 10:06:19;;;;;;;3.13;2.77;;;20.20;75.70;;;;;;4956484;28;93074;-60
2024/01/07 10:08:47;;;;;;;2.57;1.87;;;20.20;75.60;;;;;;4956605;28;92144;-60
2024/01/07 10:11:15;;;;;;;6.13;2.50;;;20.20;75.50;;;;;;4956540;28;94442;-60
2024/01/07 10:13:47;;;;;;;6.40;3.03;;;20.20;74.20;;;;;;4956723;28;94016;-61
2024/01/07 10:16:15;;;;;;;2.03;1.87;;;20.20;75.40;;;;;;4956855;28;92086;-60
2024/01/07 10:18:44;;;;;;;5.40;3.13;;;20.20;75.20;;;;;;4956085;28;92227;-60
2024/01/07 10:21:12;;;;;;;3.07;2.53;;;20.20;75.20;;;;;;4957003;28;93997;-60
2024/01/07 10:23:40;;;;;;;6.93;2.37;;;20.10;75.10;;;;;;4954810;28;93968;-60
2024/01/07 10:26:07;;;;;;;4.23;2.87;;;20.10;75.00;;;;;;4956953;28;92616;-60
2024/01/07 10:28:51;;;;;;;5.07;2.30;;;20.10;74.80;;;;;;4955897;28;92099;-60
2024/01/07 10:31:19;;;;;;;2.57;2.03;;;20.10;74.80;;;;;;4953994;28;95099;-60
2024/01/07 10:33:47;;;;;;;5.00;2.53;;;20.10;74.80;;;;;;4956082;28;95009;-60
2024/01/07 10:36:16;;;;;;;2.97;2.10;;;20.10;74.80;;;;;;4956858;28;92142;-60
2024/01/07 10:38:45;;;;;;;3.03;2.40;;;20.10;74.80;;;;;;4956426;28;92121;-60
2024/01/07 10:41:14;;;;;;;3.20;1.73;;;20.10;74.50;;;;;;4955777;28;94148;-60
2024/01/07 10:43:42;;;;;;;4.70;2.33;;;20.10;74.30;;;;;;4954318;28;93893;-60
2024/01/07 10:46:12;;;;;;;2.30;1.77;;;20.20;74.70;;;;;;4956010;28;92136;-60
2024/01/07 10:48:42;;;;;;;3.43;2.00;;;19.80;73.10;;;;;;4954449;28;91504;-60
2024/01/07 10:51:11;;;;;;;3.73;1.93;;;20.10;73.00;;;;;;4956341;28;94228;-60
2024/01/07 10:53:39;;;;;;;4.23;2.33;;;20.00;73.10;;;;;;4953729;28;93905;-60
2024/01/07 10:56:08;;;;;;;4.10;1.63;;;20.00;73.10;;;;;;4956074;28;93564;-60
2024/01/07 10:58:37;;;;;;;4.00;2.40;;;20.00;72.50;;;;;;4955920;28;92085;-60
2024/01/07 11:01:06;;;;;;;3.13;2.37;;;20.00;72.60;;;;;;4955764;28;94233;-60
2024/01/07 11:03:39;;;;;;;3.03;1.90;;;20.00;72.00;;;;;;4955592;28;93849;-61
2024/01/07 11:06:10;;;;;;;3.00;2.00;;;20.00;71.50;;;;;;4956918;28;92701;-61
2024/01/07 11:08:41;;;;;;;1.63;1.43;;;20.00;71.20;;;;;;4956327;28;92123;-61
2024/01/07 11:11:13;;;;;;;1.80;1.63;;;20.00;71.00;;;;;;4956444;28;93944;-60
2024/01/07 11:13:41;;;;;;;2.70;1.70;;;20.00;70.70;;;;;;4954593;28;94150;-60
2024/01/07 11:16:10;;;;;;;1.40;1.10;;;19.90;71.40;;;;;;4956279;28;92576;-60
2024/01/07 11:18:41;;;;;;;2.30;2.03;;;19.90;70.10;;;;;;4953627;28;92693;-62
2024/01/07 11:21:09;;;;;;;4.27;1.87;;;20.00;70.20;;;;;;4955723;28;95245;-62
2024/01/07 11:23:43;;;;;;;2.57;1.70;;;19.90;69.90;;;;;;4955710;28;94778;-62
2024/01/07 11:26:11;;;;;;;4.90;2.00;;;19.90;70.00;;;;;;4955862;28;92269;-62
2024/01/07 11:28:46;;;;;;;3.47;2.00;;;19.90;70.10;;;;;;4955976;28;92702;-62
2024/01/07 11:31:15;;;;;;;5.47;2.23;;;19.80;69.80;;;;;;4955868;28;94272;-62
2024/01/07 11:33:45;;;;;;;2.63;2.37;;;19.90;70.10;;;;;;4955897;28;93777;-62
2024/01/07 11:36:14;;;;;;;2.07;1.87;;;19.80;70.30;;;;;;4955869;28;94683;-62
2024/01/07 11:38:45;;;;;;;2.70;2.27;;;19.90;70.70;;;;;;4957350;28;92071;-62
2024/01/07 11:41:15;;;;;;;3.40;1.83;;;19.80;70.30;;;;;;4955729;28;94248;-62
2024/01/07 11:43:54;;;;;;;2.93;2.10;;;19.90;70.60;;;;;;4955357;28;93718;-62
2024/01/07 11:46:22;;;;;;;4.37;2.37;;;19.80;70.50;;;;;;4953049;28;93218;-62
2024/01/07 11:48:57;;;;;;;3.07;2.13;;;19.80;70.30;;;;;;4955183;28;92094;-62
2024/01/07 11:51:27;;;;;;;2.97;2.03;;;19.80;70.30;;;;;;4954211;28;94244;-62
2024/01/07 11:53:55;;;;;;;1.90;1.80;;;19.80;70.40;;;;;;4954913;28;93855;-62
2024/01/07 11:56:23;;;;;;;4.10;2.93;;;19.80;70.50;;;;;;4955664;28;92061;-62
2024/01/07 11:58:52;;;;;;;3.00;2.77;;;19.80;70.50;;;;;;4954164;28;92162;-61
2024/01/07 12:01:20;;;;;;;5.03;2.40;;;19.80;71.40;;;;;;4952779;28;93922;-62
2024/01/07 12:03:48;;;;;;;4.30;2.57;;;19.80;70.60;;;;;;4955541;28;94176;-62
2024/01/07 12:06:17;;;;;;;4.27;2.77;;;19.80;70.60;;;;;;4955299;28;93175;-62
2024/01/07 12:08:45;;;;;;;5.30;2.67;;;19.80;71.00;;;;;;4954310;28;92847;-62
2024/01/07 12:11:14;;;;;;;5.70;3.13;;;19.80;70.90;;;;;;4954514;28;95126;-62
2024/01/07 12:13:42;;;;;;;2.40;2.20;;;19.80;71.30;;;;;;4954338;28;94892;-62
2024/01/07 12:16:10;;;;;;;2.27;1.60;;;19.80;72.10;;;;;;4954953;28;92188;-62
2024/01/07 12:18:39;;;;;;;2.60;1.90;;;19.80;71.10;;;;;;4955481;28;92249;-62
2024/01/07 12:21:08;;;;;;;4.53;2.30;;;19.80;71.40;;;;;;4954832;28;94239;-61
2024/01/07 12:23:37;;;;;;;2.47;2.00;;;19.80;71.30;;;;;;4955374;28;93869;-61
2024/01/07 12:26:10;;;;;;;2.57;2.37;;;19.80;71.40;;;;;;4954955;28;92064;-62
2024/01/07 12:28:38;;;;;;;4.57;2.50;;;19.80;71.60;;;;;;4955476;28;91381;-61
2024/01/07 12:31:07;;;;;;;2.50;1.90;;;19.80;71.50;;;;;;4954806;28;94329;-61
2024/01/07 12:33:37;;;;;;;4.77;2.60;;;19.80;71.30;;;;;;4954564;28;93860;-61
2024/01/07 12:36:07;;;;;;;3.23;2.03;;;19.80;71.30;;;;;;4954197;28;93026;-61
2024/01/07 12:38:39;;;;;;;2.73;2.27;;;19.70;71.00;;;;;;4955345;28;92235;-61
2024/01/07 12:41:07;;;;;;;4.07;2.93;;;19.80;71.60;;;;;;4954991;28;94443;-61
2024/01/07 12:43:35;;;;;;;6.20;2.83;;;19.80;71.50;;;;;;4954011;28;93843;-61
2024/01/07 12:46:05;;;;;;;4.47;2.70;;;19.70;71.60;;;;;;4954789;28;92131;-61
2024/01/07 12:48:34;;;;;;;3.73;2.13;;;19.70;71.50;;;;;;4952504;28;92105;-61
2024/01/07 12:51:02;;;;;;;4.37;2.60;;;19.70;71.70;;;;;;4954093;28;94311;-62
2024/01/07 12:53:30;;;;;;;2.17;1.77;;;19.70;71.90;;;;;;4954663;28;93887;-61